← Previous May 28, 2024 3:09 AM

FTUS43 KDMX 260520
TAFDSM
TAF
KDSM 260520Z 2606/2706 12011KT 6SM BR VCTS BKN045CB OVC200
      TEMPO 2606/2609 2SM TSRA BR OVC025CB
     FM261000 12010KT 6SM BR VCSH OVC020
     FM261700 34006KT P6SM BKN025
     FM262100 33009KT P6SM VCTS SCT025CB
     FM270100 34009KT P6SM SCT035=